Time;durP1;ratioP1;P1;durP2;ratioP2;P2;SDS_P1;SDS_P2;PMS_P1;PMS_P2;Temp;Humidity;BMP_temperature;BMP_pressure;BME280_temperature;BME280_humidity;BME280_pressure;Samples;Min_cycle;Max_cycle;Signal;HPM_P1;HPM_P2
2023/06/15 00:00:56;;;;;;;2.67;2.47;;;26.30;31.40;;;;;;5086978;27;45174;-71
2023/06/15 00:03:23;;;;;;;2.60;2.40;;;26.30;31.40;;;;;;5086986;27;45352;-73
2023/06/15 00:05:50;;;;;;;2.30;2.10;;;26.30;31.50;;;;;;5086918;27;46336;-72
2023/06/15 00:08:17;;;;;;;2.63;2.42;;;26.30;31.40;;;;;;5086765;27;45296;-72
2023/06/15 00:10:44;;;;;;;2.10;2.00;;;26.20;31.40;;;;;;5087072;27;45248;-73
2023/06/15 00:13:12;;;;;;;2.70;2.50;;;26.20;31.40;;;;;;5087114;27;45463;-72
2023/06/15 00:15:40;;;;;;;2.53;2.30;;;26.20;31.50;;;;;;5086896;27;45357;-71
2023/06/15 00:18:06;;;;;;;3.47;2.50;;;26.20;31.50;;;;;;5086507;27;45337;-72
2023/06/15 00:20:34;;;;;;;3.45;2.25;;;26.20;31.50;;;;;;5086911;27;45263;-72
2023/06/15 00:23:01;;;;;;;2.35;2.17;;;26.10;31.50;;;;;;5084356;27;45205;-72
2023/06/15 00:25:28;;;;;;;2.55;2.22;;;26.10;31.50;;;;;;5086604;27;46358;-71
2023/06/15 00:27:55;;;;;;;3.10;2.42;;;26.10;31.50;;;;;;5098868;27;45500;-72
2023/06/15 00:30:23;;;;;;;2.40;2.20;;;26.10;31.50;;;;;;5107205;27;45307;-70
2023/06/15 00:32:50;;;;;;;2.47;2.28;;;26.00;31.50;;;;;;5107399;27;45290;-72
2023/06/15 00:35:17;;;;;;;2.33;2.15;;;26.00;31.60;;;;;;5098953;27;45323;-72
2023/06/15 00:37:44;;;;;;;2.67;2.47;;;26.00;31.60;;;;;;5085688;27;45297;-73
2023/06/15 00:40:12;;;;;;;2.55;2.45;;;26.00;31.60;;;;;;5083880;27;45331;-73
2023/06/15 00:42:39;;;;;;;3.17;2.55;;;26.00;31.60;;;;;;5086803;27;45276;-71
2023/06/15 00:45:07;;;;;;;2.33;2.13;;;26.00;31.60;;;;;;5085718;27;45618;-72
2023/06/15 00:47:38;;;;;;;2.45;2.20;;;26.00;31.70;;;;;;5086341;27;45306;-72
2023/06/15 00:50:09;;;;;;;2.72;2.53;;;26.00;31.70;;;;;;5086494;27;45268;-70
2023/06/15 00:52:36;;;;;;;2.67;2.47;;;25.90;31.70;;;;;;5086532;27;45323;-72
2023/06/15 00:55:03;;;;;;;2.42;2.22;;;25.90;31.70;;;;;;5086106;27;46685;-72
2023/06/15 00:57:32;;;;;;;2.70;2.50;;;25.90;31.70;;;;;;5086231;27;45205;-72
2023/06/15 00:59:59;;;;;;;2.80;2.20;;;25.90;31.80;;;;;;5086277;27;45306;-72
2023/06/15 01:02:27;;;;;;;2.50;2.30;;;25.80;31.80;;;;;;5086107;27;45553;-72
2023/06/15 01:04:55;;;;;;;3.03;2.28;;;25.80;31.80;;;;;;5086078;27;45471;-72
2023/06/15 01:07:27;;;;;;;2.47;2.20;;;25.80;31.80;;;;;;5086317;27;45605;-72
2023/06/15 01:09:54;;;;;;;3.10;2.60;;;25.80;31.90;;;;;;5086136;27;45323;-72
2023/06/15 01:12:21;;;;;;;2.75;2.55;;;25.70;31.80;;;;;;5086271;27;45196;-72
2023/06/15 01:14:48;;;;;;;2.63;2.30;;;25.80;32.00;;;;;;5085994;27;46793;-71
2023/06/15 01:17:15;;;;;;;2.28;2.17;;;25.70;31.90;;;;;;5085784;27;45302;-72
2023/06/15 01:19:53;;;;;;;2.80;2.33;;;25.70;31.90;;;;;;5085837;27;45326;-72
2023/06/15 01:22:35;;;;;;;2.35;2.15;;;25.60;31.90;;;;;;5086259;27;45695;-72
2023/06/15 01:25:10;;;;;;;2.40;2.20;;;25.60;31.90;;;;;;5085568;27;45771;-72
2023/06/15 01:27:39;;;;;;;2.67;2.25;;;25.60;32.00;;;;;;5085647;27;45308;-72
2023/06/15 01:30:07;;;;;;;2.47;2.28;;;25.60;32.00;;;;;;5085873;27;45165;-71
2023/06/15 01:32:34;;;;;;;2.60;2.28;;;25.60;31.90;;;;;;5085980;27;45357;-72
2023/06/15 01:35:01;;;;;;;2.60;2.40;;;25.50;31.90;;;;;;5090692;27;45435;-72
2023/06/15 01:37:28;;;;;;;2.40;2.20;;;25.50;32.00;;;;;;5106057;27;45277;-72
2023/06/15 01:39:55;;;;;;;2.70;2.50;;;25.50;32.00;;;;;;5103490;27;45222;-72
2023/06/15 01:42:22;;;;;;;2.97;2.40;;;25.50;32.00;;;;;;5106372;27;45438;-72
2023/06/15 01:44:52;;;;;;;2.33;2.17;;;25.50;32.00;;;;;;5105425;27;46545;-72
2023/06/15 01:47:19;;;;;;;2.33;2.13;;;25.50;32.10;;;;;;5106386;27;45298;-72
2023/06/15 01:49:46;;;;;;;2.60;2.40;;;25.50;32.00;;;;;;5109736;27;45199;-72
2023/06/15 01:52:13;;;;;;;2.53;2.33;;;25.40;32.00;;;;;;5110251;27;45367;-70
2023/06/15 01:54:40;;;;;;;2.25;2.10;;;25.40;32.10;;;;;;5109304;27;46392;-70
2023/06/15 01:57:07;;;;;;;2.40;2.20;;;25.40;32.10;;;;;;5109232;27;45378;-70
2023/06/15 01:59:34;;;;;;;2.40;2.20;;;25.40;32.20;;;;;;5109231;27;45435;-70
2023/06/15 02:02:03;;;;;;;2.70;1.98;;;25.30;32.20;;;;;;5109462;27;45327;-70
2023/06/15 02:04:29;;;;;;;2.60;2.40;;;25.30;32.20;;;;;;5109175;27;46418;-70
2023/06/15 02:06:57;;;;;;;2.50;2.30;;;25.40;32.30;;;;;;5109006;27;45391;-73
2023/06/15 02:09:24;;;;;;;2.40;2.20;;;25.30;32.20;;;;;;5109551;27;45391;-72
2023/06/15 02:11:51;;;;;;;2.83;2.08;;;25.30;32.20;;;;;;5109536;27;45548;-73
2023/06/15 02:14:18;;;;;;;2.58;2.38;;;25.30;32.30;;;;;;5109065;27;46333;-72
2023/06/15 02:16:48;;;;;;;2.80;2.33;;;25.30;32.30;;;;;;5109096;27;45425;-74
2023/06/15 02:19:20;;;;;;;3.03;2.30;;;25.20;32.30;;;;;;5109237;27;45334;-71
2023/06/15 02:21:48;;;;;;;2.67;2.15;;;25.20;32.30;;;;;;5109253;27;45378;-72
2023/06/15 02:24:15;;;;;;;2.60;2.30;;;25.20;32.40;;;;;;5108683;27;46461;-72
2023/06/15 02:26:42;;;;;;;2.33;2.13;;;25.20;32.40;;;;;;5108863;27;45187;-72
2023/06/15 02:29:08;;;;;;;3.50;2.40;;;25.10;32.40;;;;;;5108832;27;45283;-72
2023/06/15 02:31:36;;;;;;;2.38;2.17;;;25.10;32.40;;;;;;5108915;27;45383;-73
2023/06/15 02:34:03;;;;;;;2.30;2.10;;;25.10;32.50;;;;;;5108185;27;45375;-71
2023/06/15 02:36:31;;;;;;;2.33;2.13;;;25.10;32.50;;;;;;5090784;27;45323;-72
2023/06/15 02:38:58;;;;;;;2.58;2.10;;;25.10;32.50;;;;;;5088225;27;45333;-71
2023/06/15 02:41:25;;;;;;;2.70;2.30;;;25.10;32.60;;;;;;5088515;27;45311;-72
2023/06/15 02:43:52;;;;;;;2.63;2.42;;;25.00;32.50;;;;;;5088071;27;45389;-72
2023/06/15 02:46:20;;;;;;;2.42;2.22;;;25.00;32.50;;;;;;5087957;27;45311;-72
2023/06/15 02:48:51;;;;;;;2.50;2.30;;;25.00;32.50;;;;;;5088247;27;45208;-72
2023/06/15 02:51:19;;;;;;;2.60;2.40;;;25.00;32.50;;;;;;5088260;27;45480;-72
2023/06/15 02:53:47;;;;;;;2.42;2.20;;;25.00;32.60;;;;;;5087943;27;45650;-71
2023/06/15 02:56:18;;;;;;;2.38;2.17;;;25.00;32.60;;;;;;5087896;27;45304;-72
2023/06/15 02:58:47;;;;;;;2.17;2.08;;;25.00;32.60;;;;;;5087159;27;45303;-72
2023/06/15 03:01:17;;;;;;;2.58;2.35;;;25.00;32.60;;;;;;5087726;27;45512;-72
2023/06/15 03:03:44;;;;;;;2.58;2.05;;;24.90;32.60;;;;;;5087614;27;45270;-72
2023/06/15 03:06:11;;;;;;;3.05;2.10;;;24.90;32.70;;;;;;5088147;27;45254;-72
2023/06/15 03:08:38;;;;;;;2.42;2.22;;;24.90;32.70;;;;;;5088015;27;45243;-72
2023/06/15 03:11:06;;;;;;;2.85;2.55;;;24.80;32.70;;;;;;5088035;27;45643;-72
2023/06/15 03:13:33;;;;;;;2.20;2.00;;;24.80;32.70;;;;;;5087647;27;46401;-72
2023/06/15 03:16:01;;;;;;;2.40;2.20;;;24.80;32.80;;;;;;5087616;27;45339;-73
2023/06/15 03:18:28;;;;;;;2.30;2.10;;;24.80;32.80;;;;;;5087717;27;45182;-72
2023/06/15 03:20:57;;;;;;;2.25;2.05;;;24.80;32.80;;;;;;5091215;27;45473;-72
2023/06/15 03:23:24;;;;;;;2.22;2.13;;;24.70;32.80;;;;;;5103631;27;45495;-72
2023/06/15 03:25:51;;;;;;;2.60;2.40;;;24.80;32.90;;;;;;5087765;27;45259;-73
2023/06/15 03:28:23;;;;;;;2.45;2.25;;;24.70;32.90;;;;;;5102978;27;45413;-71
2023/06/15 03:30:53;;;;;;;2.20;2.10;;;24.70;32.90;;;;;;5108221;27;45303;-72
2023/06/15 03:33:22;;;;;;;2.42;2.22;;;24.70;32.90;;;;;;5107631;27;45418;-73
2023/06/15 03:35:49;;;;;;;2.53;2.30;;;24.70;32.90;;;;;;5096338;27;45311;-71
2023/06/15 03:38:16;;;;;;;2.80;2.50;;;24.70;32.90;;;;;;5087461;27;45185;-72
2023/06/15 03:40:43;;;;;;;2.42;2.22;;;24.60;32.90;;;;;;5087339;27;45203;-72
2023/06/15 03:43:10;;;;;;;2.30;2.10;;;24.60;33.00;;;;;;5087098;27;47371;-71
2023/06/15 03:45:39;;;;;;;2.45;2.25;;;24.60;33.00;;;;;;5087058;27;45329;-71
2023/06/15 03:48:05;;;;;;;2.88;2.28;;;24.60;33.00;;;;;;5087118;27;45272;-71
2023/06/15 03:50:32;;;;;;;2.67;2.38;;;24.50;33.00;;;;;;5087258;27;45229;-71
2023/06/15 03:52:59;;;;;;;2.35;2.15;;;24.50;33.00;;;;;;5086868;27;47303;-71
2023/06/15 03:55:26;;;;;;;2.60;2.40;;;24.50;33.10;;;;;;5087134;27;45305;-71
2023/06/15 03:57:53;;;;;;;2.30;2.10;;;24.50;33.10;;;;;;5086876;27;45301;-71
2023/06/15 04:00:20;;;;;;;2.38;2.17;;;24.50;33.20;;;;;;5087131;27;45330;-71
2023/06/15 04:02:48;;;;;;;2.30;2.10;;;24.50;33.20;;;;;;5086436;27;46710;-72
2023/06/15 04:05:15;;;;;;;2.20;2.00;;;24.40;33.20;;;;;;5086580;27;45283;-71
2023/06/15 04:07:42;;;;;;;2.38;2.17;;;24.40;33.20;;;;;;5086866;27;45370;-71
2023/06/15 04:10:10;;;;;;;2.63;2.40;;;24.40;33.20;;;;;;5086349;27;45310;-71
2023/06/15 04:12:37;;;;;;;3.55;2.15;;;24.40;33.20;;;;;;5086412;28;45265;-71
2023/06/15 04:15:05;;;;;;;2.53;2.17;;;24.30;33.20;;;;;;5086385;27;45439;-72
2023/06/15 04:17:32;;;;;;;2.10;2.00;;;24.40;33.30;;;;;;5086692;27;45370;-71
2023/06/15 04:20:00;;;;;;;2.40;2.20;;;24.30;33.30;;;;;;5086776;27;45310;-71
2023/06/15 04:22:27;;;;;;;2.60;2.40;;;24.30;33.30;;;;;;5086482;27;46920;-71
2023/06/15 04:24:55;;;;;;;3.13;2.38;;;24.30;33.30;;;;;;5086435;27;45257;-71
2023/06/15 04:27:23;;;;;;;2.58;2.38;;;24.30;33.40;;;;;;5093923;27;45370;-71
2023/06/15 04:29:52;;;;;;;4.65;2.45;;;24.30;33.40;;;;;;5106973;27;45505;-71
2023/06/15 04:32:19;;;;;;;2.20;2.00;;;24.30;33.40;;;;;;5106750;27;46487;-72
2023/06/15 04:34:46;;;;;;;2.30;2.10;;;24.30;33.40;;;;;;5103533;27;45496;-71
2023/06/15 04:37:16;;;;;;;2.35;2.15;;;24.30;33.40;;;;;;5086273;27;45456;-71
2023/06/15 04:39:43;;;;;;;2.42;2.22;;;24.30;33.40;;;;;;5086370;27;45159;-71
2023/06/15 04:42:11;;;;;;;2.17;2.08;;;24.30;33.40;;;;;;5085804;27;46716;-71
2023/06/15 04:44:38;;;;;;;3.55;2.38;;;24.30;33.40;;;;;;5086029;27;45346;-70
2023/06/15 04:47:06;;;;;;;2.38;2.10;;;24.20;33.40;;;;;;5086101;27;45277;-71
2023/06/15 04:49:33;;;;;;;2.10;2.00;;;24.30;33.50;;;;;;5086373;27;45346;-71
2023/06/15 04:52:00;;;;;;;3.78;2.28;;;24.30;33.50;;;;;;5085991;27;46637;-71
2023/06/15 04:54:28;;;;;;;2.17;1.95;;;24.20;33.50;;;;;;5085933;27;45303;-72
2023/06/15 04:56:57;;;;;;;2.60;2.17;;;24.20;33.50;;;;;;5086092;27;45327;-73
2023/06/15 04:59:23;;;;;;;2.60;2.33;;;24.30;33.60;;;;;;5085711;27;45459;-72
2023/06/15 05:01:50;;;;;;;2.60;2.38;;;24.20;33.50;;;;;;5085772;27;45469;-72
2023/06/15 05:04:17;;;;;;;2.55;2.05;;;24.20;33.50;;;;;;5085826;27;45341;-72
2023/06/15 05:06:44;;;;;;;2.45;2.25;;;24.20;33.60;;;;;;5086004;27;45418;-72
2023/06/15 05:09:11;;;;;;;2.38;2.17;;;24.20;33.60;;;;;;5086161;27;45375;-72
2023/06/15 05:11:39;;;;;;;2.88;2.35;;;24.20;33.60;;;;;;5085717;27;45530;-72
2023/06/15 05:14:06;;;;;;;2.50;2.30;;;24.20;33.60;;;;;;5086608;27;45350;-73
2023/06/15 05:16:33;;;;;;;2.17;2.08;;;24.20;33.70;;;;;;5085949;27;45368;-72
2023/06/15 05:19:00;;;;;;;2.72;2.53;;;24.20;33.60;;;;;;5085942;27;45597;-72
2023/06/15 05:21:26;;;;;;;2.22;2.10;;;24.20;33.60;;;;;;5085821;27;45292;-73
2023/06/15 05:23:53;;;;;;;3.05;2.45;;;24.20;33.60;;;;;;5088545;27;45234;-70
2023/06/15 05:26:20;;;;;;;2.38;2.17;;;24.20;33.60;;;;;;5089431;27;45206;-73
2023/06/15 05:28:48;;;;;;;2.60;2.20;;;24.20;33.70;;;;;;5108833;27;45308;-72
2023/06/15 05:31:15;;;;;;;2.72;2.35;;;24.20;33.70;;;;;;5109537;27;46459;-72
2023/06/15 05:33:42;;;;;;;3.08;2.33;;;24.20;33.70;;;;;;5109675;27;45145;-72
2023/06/15 05:36:09;;;;;;;2.13;2.03;;;24.20;33.70;;;;;;5094892;27;45217;-72
2023/06/15 05:38:36;;;;;;;4.78;2.22;;;24.20;33.70;;;;;;5089232;27;45359;-72
2023/06/15 05:41:03;;;;;;;2.55;2.35;;;24.10;33.70;;;;;;5088722;27;46600;-71
2023/06/15 05:43:30;;;;;;;2.33;2.13;;;24.10;33.70;;;;;;5088550;27;45367;-72
2023/06/15 05:45:58;;;;;;;2.55;2.30;;;24.10;33.80;;;;;;5089209;27;45205;-72
2023/06/15 05:48:24;;;;;;;2.53;2.30;;;24.10;33.80;;;;;;5089122;27;45456;-72
2023/06/15 05:50:51;;;;;;;2.30;2.05;;;24.10;33.90;;;;;;5088840;27;45512;-72
2023/06/15 05:53:18;;;;;;;2.58;2.38;;;24.10;33.90;;;;;;5088815;27;45394;-72
2023/06/15 05:55:45;;;;;;;2.67;2.47;;;24.10;33.90;;;;;;5088790;27;45322;-70
2023/06/15 05:58:12;;;;;;;2.40;2.20;;;24.10;34.00;;;;;;5088997;27;45195;-70
2023/06/15 06:00:39;;;;;;;2.40;2.20;;;24.10;34.00;;;;;;5088385;27;46620;-70
2023/06/15 06:03:07;;;;;;;2.67;2.47;;;24.10;34.00;;;;;;5088166;27;45357;-70
2023/06/15 06:05:39;;;;;;;2.70;2.42;;;24.10;34.00;;;;;;5088796;27;45398;-73
2023/06/15 06:08:06;;;;;;;2.55;2.35;;;24.10;34.00;;;;;;5088821;27;45508;-72
2023/06/15 06:10:33;;;;;;;2.08;1.95;;;24.10;34.00;;;;;;5088498;27;45338;-72
2023/06/15 06:13:00;;;;;;;2.10;2.00;;;24.10;33.90;;;;;;5088841;27;45436;-73
2023/06/15 06:15:27;;;;;;;2.40;2.15;;;24.10;34.00;;;;;;5088743;27;45210;-72
2023/06/15 06:17:53;;;;;;;2.35;2.15;;;24.10;34.00;;;;;;5089060;27;45188;-72
2023/06/15 06:20:22;;;;;;;2.85;2.30;;;24.10;34.00;;;;;;5088277;27;45309;-72
2023/06/15 06:22:48;;;;;;;2.20;2.00;;;24.10;33.90;;;;;;5088337;27;45373;-73
2023/06/15 06:25:15;;;;;;;2.60;2.40;;;24.10;34.00;;;;;;5088603;27;45296;-72
2023/06/15 06:27:42;;;;;;;2.53;2.20;;;24.20;34.00;;;;;;5098405;27;45303;-72
2023/06/15 06:30:10;;;;;;;2.42;2.28;;;24.20;34.00;;;;;;5108339;27;45481;-71
2023/06/15 06:32:36;;;;;;;3.45;2.33;;;24.20;34.00;;;;;;5108619;27;45369;-72
2023/06/15 06:35:04;;;;;;;2.50;2.30;;;24.20;34.00;;;;;;5103201;27;45502;-72
2023/06/15 06:37:32;;;;;;;2.63;2.42;;;24.20;34.00;;;;;;5088559;27;45432;-72
2023/06/15 06:39:59;;;;;;;2.50;2.30;;;24.20;34.10;;;;;;5087929;27;45278;-73
2023/06/15 06:42:26;;;;;;;3.72;2.67;;;24.20;34.10;;;;;;5088025;27;45429;-72
2023/06/15 06:44:53;;;;;;;2.60;2.40;;;24.20;34.10;;;;;;5088199;27;45337;-72
2023/06/15 06:47:20;;;;;;;2.95;2.63;;;24.30;34.20;;;;;;5088269;27;45356;-72
2023/06/15 06:49:47;;;;;;;3.00;2.47;;;24.20;34.10;;;;;;5087851;27;46408;-72
2023/06/15 06:52:13;;;;;;;2.65;2.40;;;24.20;34.10;;;;;;5087776;27;45279;-72
2023/06/15 06:54:42;;;;;;;2.63;2.42;;;24.20;34.70;;;;;;5087931;27;45195;-72
2023/06/15 06:57:08;;;;;;;2.53;2.25;;;24.30;34.10;;;;;;5087973;27;45492;-72
2023/06/15 06:59:35;;;;;;;2.75;2.55;;;24.30;34.10;;;;;;5087889;27;47437;-72
2023/06/15 07:02:02;;;;;;;2.30;2.05;;;24.30;34.10;;;;;;5087351;27;45220;-72
2023/06/15 07:04:29;;;;;;;3.00;2.10;;;24.30;34.10;;;;;;5087789;27;45195;-73
2023/06/15 07:06:56;;;;;;;3.35;2.70;;;24.30;34.10;;;;;;5088028;27;45436;-72
2023/06/15 07:09:22;;;;;;;2.65;2.40;;;24.30;34.10;;;;;;5087447;27;46706;-72
2023/06/15 07:11:51;;;;;;;2.40;2.20;;;24.30;34.10;;;;;;5084488;27;45492;-72
2023/06/15 07:14:17;;;;;;;2.00;1.90;;;24.30;34.10;;;;;;5087161;28;45197;-72
2023/06/15 07:16:44;;;;;;;2.78;2.47;;;24.40;34.10;;;;;;5087836;27;45291;-72
2023/06/15 07:19:11;;;;;;;2.85;2.30;;;24.40;34.10;;;;;;5087043;27;46657;-70
2023/06/15 07:21:39;;;;;;;6.22;2.50;;;24.40;34.20;;;;;;5087228;27;45359;-70
2023/06/15 07:24:06;;;;;;;8.10;2.50;;;24.40;34.70;;;;;;5087317;27;45351;-71
2023/06/15 07:26:33;;;;;;;5.28;2.50;;;24.40;35.10;;;;;;5088466;27;44727;-70
2023/06/15 07:29:01;;;;;;;3.80;2.38;;;24.40;35.10;;;;;;5107616;27;46407;-70
2023/06/15 07:31:28;;;;;;;4.10;2.67;;;24.50;35.30;;;;;;5107240;27;45296;-71
2023/06/15 07:33:56;;;;;;;2.83;2.40;;;24.60;35.10;;;;;;5107316;27;45331;-69
2023/06/15 07:36:23;;;;;;;2.90;2.63;;;24.60;34.80;;;;;;5091300;27;45190;-70
2023/06/15 07:38:52;;;;;;;2.83;2.53;;;24.70;35.10;;;;;;5087006;27;46316;-71
2023/06/15 07:41:19;;;;;;;5.00;2.78;;;24.80;35.60;;;;;;5086918;27;45328;-69
2023/06/15 07:43:46;;;;;;;2.40;2.20;;;24.90;35.80;;;;;;5086702;27;45351;-67
2023/06/15 07:46:14;;;;;;;7.72;2.38;;;25.00;34.50;;;;;;5086253;27;45173;-71
2023/06/15 07:48:41;;;;;;;3.10;2.63;;;25.00;34.70;;;;;;5086570;27;45460;-70
2023/06/15 07:51:08;;;;;;;3.55;3.08;;;25.10;34.40;;;;;;5086385;27;45347;-72
2023/06/15 07:53:35;;;;;;;3.50;2.70;;;25.10;35.30;;;;;;5086874;27;45280;-72
2023/06/15 07:56:01;;;;;;;6.65;3.00;;;25.20;34.90;;;;;;5086832;27;45146;-70
2023/06/15 07:58:28;;;;;;;2.80;2.50;;;25.30;35.10;;;;;;5086065;27;45239;-70
2023/06/15 08:00:55;;;;;;;4.57;2.60;;;25.30;34.70;;;;;;5086789;27;45234;-67
2023/06/15 08:03:23;;;;;;;2.60;2.40;;;25.30;34.50;;;;;;5086365;27;45403;-69
2023/06/15 08:05:50;;;;;;;5.20;2.78;;;25.40;34.40;;;;;;5086945;27;45367;-72
2023/06/15 08:08:17;;;;;;;4.88;2.75;;;25.40;34.50;;;;;;5085852;27;45451;-69
2023/06/15 08:10:44;;;;;;;7.78;2.72;;;25.50;34.50;;;;;;5086031;27;45130;-71
2023/06/15 08:13:10;;;;;;;8.13;2.75;;;25.50;34.20;;;;;;5086441;27;45210;-71
2023/06/15 08:15:37;;;;;;;3.58;2.88;;;25.50;34.20;;;;;;5086464;27;45305;-71
2023/06/15 08:18:04;;;;;;;3.47;3.17;;;25.50;34.70;;;;;;5083475;27;45394;-70
2023/06/15 08:20:32;;;;;;;4.70;2.97;;;25.50;34.70;;;;;;5085887;27;45301;-71
2023/06/15 08:22:59;;;;;;;3.50;2.90;;;25.50;34.60;;;;;;5086260;27;45239;-71
2023/06/15 08:25:26;;;;;;;4.82;3.00;;;25.50;34.50;;;;;;5086347;27;45193;-71
2023/06/15 08:27:53;;;;;;;3.33;2.80;;;25.50;34.50;;;;;;5097522;27;45220;-71
2023/06/15 08:30:20;;;;;;;4.35;2.70;;;25.50;34.40;;;;;;5106589;27;45249;-71
2023/06/15 08:32:47;;;;;;;6.18;2.85;;;25.50;34.30;;;;;;5106642;27;45295;-71
2023/06/15 08:35:14;;;;;;;5.38;3.00;;;25.50;34.30;;;;;;5099767;27;45450;-71
2023/06/15 08:37:42;;;;;;;4.22;3.22;;;25.50;34.80;;;;;;5085404;27;46362;-69
2023/06/15 08:40:10;;;;;;;3.65;2.92;;;25.60;34.30;;;;;;5085820;27;45474;-71
2023/06/15 08:42:38;;;;;;;5.90;2.65;;;25.50;34.20;;;;;;5085883;27;45403;-71
2023/06/15 08:45:07;;;;;;;2.55;2.35;;;25.50;34.10;;;;;;5086232;27;45278;-71
2023/06/15 08:47:34;;;;;;;2.95;2.70;;;25.60;34.20;;;;;;5085483;27;45383;-71
2023/06/15 08:50:02;;;;;;;4.75;3.00;;;25.60;34.10;;;;;;5085735;27;45348;-71
2023/06/15 08:52:31;;;;;;;3.00;2.70;;;25.60;34.00;;;;;;5085841;27;45205;-71
2023/06/15 08:54:59;;;;;;;3.53;2.72;;;25.60;34.00;;;;;;5085799;27;45644;-71
2023/06/15 08:57:26;;;;;;;3.00;2.35;;;25.60;34.00;;;;;;5085991;27;45593;-71
2023/06/15 08:59:53;;;;;;;2.78;2.55;;;25.60;33.90;;;;;;5089083;27;45303;-71
2023/06/15 09:02:21;;;;;;;3.13;2.65;;;25.70;34.00;;;;;;5088775;27;45375;-70
2023/06/15 09:04:49;;;;;;;2.92;2.58;;;25.60;33.90;;;;;;5089321;27;45501;-71
2023/06/15 09:07:16;;;;;;;2.90;2.60;;;25.70;33.90;;;;;;5089070;27;45293;-71
2023/06/15 09:10:12;;;;;;;4.55;2.47;;;25.70;33.90;;;;;;5089062;27;45273;-71
2023/06/15 09:12:42;;;;;;;2.60;2.40;;;25.70;33.90;;;;;;5089155;27;45207;-72
2023/06/15 09:15:12;;;;;;;3.92;2.50;;;25.70;33.90;;;;;;5086599;27;45460;-71
2023/06/15 09:17:39;;;;;;;2.88;2.45;;;25.70;33.90;;;;;;5088864;27;45253;-71
2023/06/15 09:20:07;;;;;;;4.10;2.50;;;25.70;33.80;;;;;;5088894;27;45168;-70
2023/06/15 09:22:40;;;;;;;5.82;2.78;;;25.70;33.80;;;;;;5088877;27;45382;-72
2023/06/15 09:25:13;;;;;;;4.22;2.45;;;25.70;33.80;;;;;;5089167;27;45343;-69
2023/06/15 09:27:40;;;;;;;3.72;2.70;;;25.80;33.90;;;;;;5095464;27;45629;-72
2023/06/15 09:30:12;;;;;;;3.08;2.60;;;25.80;33.90;;;;;;5107477;27;45398;-73
2023/06/15 09:32:40;;;;;;;2.90;2.60;;;25.80;33.90;;;;;;5091944;27;45174;-70
2023/06/15 09:35:08;;;;;;;3.50;2.40;;;25.90;33.90;;;;;;5107766;27;45387;-71
2023/06/15 09:37:35;;;;;;;2.83;2.63;;;25.90;33.90;;;;;;5108648;27;45518;-70
2023/06/15 09:40:07;;;;;;;4.75;2.30;;;25.90;33.80;;;;;;5093774;27;45374;-70
2023/06/15 09:42:35;;;;;;;3.63;2.45;;;26.00;33.90;;;;;;5105401;27;45438;-70
2023/06/15 09:45:03;;;;;;;2.63;2.42;;;26.00;33.90;;;;;;5095203;27;45359;-70
2023/06/15 09:47:30;;;;;;;2.75;2.55;;;26.00;33.80;;;;;;5097770;27;46675;-70
2023/06/15 09:49:57;;;;;;;2.60;2.40;;;26.10;33.90;;;;;;5102522;27;45284;-70
2023/06/15 09:52:24;;;;;;;3.28;2.75;;;26.10;33.90;;;;;;5091717;27;45323;-69
2023/06/15 09:54:51;;;;;;;3.60;2.50;;;26.10;33.90;;;;;;5103863;27;45528;-70
2023/06/15 09:57:19;;;;;;;3.75;2.70;;;26.10;33.90;;;;;;5095037;27;46638;-70
2023/06/15 09:59:48;;;;;;;3.05;2.60;;;26.20;34.00;;;;;;5100816;27;45315;-70
2023/06/15 10:02:17;;;;;;;2.47;2.28;;;26.20;34.00;;;;;;5091228;27;45363;-72
2023/06/15 10:04:44;;;;;;;2.97;2.53;;;26.30;34.10;;;;;;5104846;27;45326;-69
2023/06/15 10:07:12;;;;;;;2.63;2.42;;;26.30;34.10;;;;;;5095719;27;47420;-71
2023/06/15 10:09:42;;;;;;;2.75;2.55;;;26.30;34.60;;;;;;5102898;27;45495;-71
2023/06/15 10:12:12;;;;;;;4.53;2.78;;;26.30;36.10;;;;;;5093647;27;45281;-70
2023/06/15 10:14:42;;;;;;;5.70;2.88;;;26.30;36.20;;;;;;5105586;27;45434;-70
2023/06/15 10:17:11;;;;;;;8.07;2.92;;;26.30;36.20;;;;;;5096177;27;47348;-72
2023/06/15 10:19:42;;;;;;;12.38;3.35;;;26.40;36.50;;;;;;5097257;27;45342;-73
2023/06/15 10:22:12;;;;;;;10.75;3.20;;;26.40;35.90;;;;;;5104396;27;45419;-72
2023/06/15 10:24:39;;;;;;;7.53;3.13;;;26.50;36.50;;;;;;5092106;27;45539;-71
2023/06/15 10:27:06;;;;;;;6.15;2.90;;;26.50;36.40;;;;;;5106117;27;46757;-73
2023/06/15 10:29:37;;;;;;;4.00;2.83;;;26.60;35.30;;;;;;5108210;27;45323;-70
2023/06/15 10:32:10;;;;;;;5.45;2.90;;;26.70;35.80;;;;;;5108387;27;45249;-70
2023/06/15 10:34:41;;;;;;;5.38;2.70;;;26.70;35.60;;;;;;5108247;27;45521;-70
2023/06/15 10:37:10;;;;;;;4.70;3.00;;;26.80;35.40;;;;;;5108099;27;46487;-70
2023/06/15 10:39:41;;;;;;;3.90;2.70;;;26.90;35.20;;;;;;5108129;27;45258;-70
2023/06/15 10:42:08;;;;;;;4.00;2.42;;;26.90;34.90;;;;;;5108430;27;45315;-69
2023/06/15 10:44:35;;;;;;;3.42;2.70;;;27.00;34.80;;;;;;5108368;27;45325;-70
2023/06/15 10:47:10;;;;;;;7.65;2.83;;;27.00;34.60;;;;;;5107859;27;45571;-70
2023/06/15 10:49:37;;;;;;;3.10;2.80;;;27.00;34.60;;;;;;5108054;27;45198;-70
2023/06/15 10:52:05;;;;;;;3.05;2.55;;;27.10;34.40;;;;;;5108171;27;45334;-70
2023/06/15 10:54:31;;;;;;;3.97;2.90;;;27.10;34.30;;;;;;5103582;27;45580;-70
2023/06/15 10:56:58;;;;;;;3.47;2.53;;;27.20;34.40;;;;;;5096203;27;45365;-70
2023/06/15 10:59:38;;;;;;;5.07;2.47;;;27.20;34.10;;;;;;5095506;27;45296;-70
2023/06/15 11:02:33;;;;;;;12.40;3.28;;;27.30;34.20;;;;;;5104299;27;45399;-69
2023/06/15 11:05:02;;;;;;;6.85;3.33;;;27.30;34.90;;;;;;5096754;27;45557;-71
2023/06/15 11:07:28;;;;;;;7.43;2.85;;;27.30;34.90;;;;;;5100918;27;47583;-70
2023/06/15 11:09:57;;;;;;;8.23;2.83;;;27.30;34.40;;;;;;5103964;27;45247;-71
2023/06/15 11:12:33;;;;;;;5.47;3.10;;;27.40;34.40;;;;;;5091239;27;45393;-71
2023/06/15 11:15:01;;;;;;;5.32;3.40;;;27.40;35.60;;;;;;5108340;27;45366;-73
2023/06/15 11:17:29;;;;;;;3.72;3.08;;;27.50;35.00;;;;;;5108175;27;45485;-72
2023/06/15 11:19:57;;;;;;;5.80;3.20;;;27.60;35.90;;;;;;5091161;27;45414;-71
2023/06/15 11:22:25;;;;;;;7.60;4.85;;;27.70;35.50;;;;;;5091297;27;45292;-70
2023/06/15 11:24:54;;;;;;;6.35;4.50;;;27.80;35.30;;;;;;5107951;27;45386;-74
2023/06/15 11:27:22;;;;;;;8.27;4.00;;;27.90;35.30;;;;;;5107545;27;46744;-73
2023/06/15 11:29:55;;;;;;;4.88;3.90;;;28.00;34.50;;;;;;5107561;27;45477;-73
2023/06/15 11:32:25;;;;;;;3.83;3.53;;;28.10;34.30;;;;;;5107830;27;45185;-71
2023/06/15 11:34:56;;;;;;;6.40;3.90;;;28.10;34.00;;;;;;5107541;27;45330;-72
2023/06/15 11:37:27;;;;;;;4.35;3.28;;;28.20;33.90;;;;;;5102327;27;45419;-73
2023/06/15 11:39:53;;;;;;;10.75;3.38;;;28.20;33.60;;;;;;5099093;27;45731;-73
2023/06/15 11:42:22;;;;;;;7.15;3.05;;;28.20;34.50;;;;;;5100061;27;45406;-72
2023/06/15 11:44:49;;;;;;;9.02;3.15;;;28.30;34.70;;;;;;5098852;27;45558;-72
2023/06/15 11:47:17;;;;;;;4.38;3.70;;;28.30;34.10;;;;;;5094025;27;46484;-73
2023/06/15 11:49:45;;;;;;;4.15;3.40;;;28.40;33.90;;;;;;5100271;27;45488;-73
2023/06/15 11:52:15;;;;;;;5.32;3.45;;;28.50;33.90;;;;;;5098807;27;45628;-71
2023/06/15 11:54:42;;;;;;;6.28;3.47;;;28.50;33.40;;;;;;5106669;27;45490;-71
2023/06/15 11:57:08;;;;;;;7.68;3.80;;;28.50;33.20;;;;;;5107069;27;45712;-71
2023/06/15 11:59:38;;;;;;;6.35;3.40;;;28.50;33.20;;;;;;5100764;27;45512;-72
2023/06/15 12:02:05;;;;;;;4.40;3.53;;;28.60;33.10;;;;;;5099537;27;45460;-73
2023/06/15 12:04:32;;;;;;;3.45;3.15;;;28.60;33.10;;;;;;5093699;27;45386;-72
2023/06/15 12:07:01;;;;;;;4.13;3.53;;;28.70;32.90;;;;;;5105260;27;45665;-72
2023/06/15 12:09:30;;;;;;;4.65;3.30;;;28.80;32.50;;;;;;5106990;27;45411;-74
2023/06/15 12:11:57;;;;;;;3.72;3.30;;;28.80;32.40;;;;;;5094435;27;45457;-72
2023/06/15 12:14:25;;;;;;;7.30;3.38;;;28.80;32.20;;;;;;5097181;27;45369;-72
2023/06/15 12:16:52;;;;;;;5.25;3.40;;;28.90;32.30;;;;;;5102597;27;46482;-72
2023/06/15 12:19:20;;;;;;;4.28;3.47;;;28.90;31.80;;;;;;5098946;27;45496;-73
2023/06/15 12:21:47;;;;;;;14.15;4.28;;;28.90;31.70;;;;;;5097699;27;45529;-72
2023/06/15 12:24:14;;;;;;;6.18;3.50;;;29.00;32.00;;;;;;5100905;27;45382;-73
2023/06/15 12:26:42;;;;;;;8.07;3.28;;;29.00;31.50;;;;;;5103449;27;45413;-72
2023/06/15 12:29:16;;;;;;;3.60;3.30;;;29.00;30.70;;;;;;5092853;27;45434;-73
2023/06/15 12:31:43;;;;;;;4.53;3.30;;;29.10;30.70;;;;;;5087704;27;45248;-72
2023/06/15 12:34:10;;;;;;;3.13;2.83;;;29.10;30.90;;;;;;5103353;27;45485;-72
2023/06/15 12:36:38;;;;;;;4.63;2.95;;;29.20;30.20;;;;;;5091548;27;45306;-73
2023/06/15 12:39:05;;;;;;;5.28;2.67;;;29.20;30.00;;;;;;5097164;27;45740;-71
2023/06/15 12:41:32;;;;;;;3.38;3.00;;;29.20;29.90;;;;;;5099860;27;45439;-72
2023/06/15 12:44:00;;;;;;;7.40;3.22;;;29.20;30.00;;;;;;5105166;27;45644;-69
2023/06/15 12:46:28;;;;;;;5.03;3.67;;;29.00;29.80;;;;;;5106682;27;45687;-69
2023/06/15 12:48:55;;;;;;;4.57;2.97;;;29.00;31.00;;;;;;5103380;27;45411;-72